createdAt,value
2023-09-27T00:00:15.221Z,100857.44
2023-09-27T00:01:18.829Z,100850.19
2023-09-27T00:02:24.365Z,100855.78
2023-09-27T00:03:28.376Z,100854.91
2023-09-27T00:04:30.888Z,100856.03
2023-09-27T00:05:34.976Z,100855.50
2023-09-27T00:06:38.164Z,100853.84
2023-09-27T00:07:42.677Z,100854.94
2023-09-27T00:08:46.554Z,100845.75
2023-09-27T00:09:49.359Z,100849.38
2023-09-27T00:10:53.033Z,100849.06
2023-09-27T00:11:55.615Z,100849.38
2023-09-27T00:12:58.038Z,100848.56
2023-09-27T00:14:00.487Z,100852.16
2023-09-27T00:15:03.666Z,100848.56
2023-09-27T00:16:06.170Z,100851.34
2023-09-27T00:17:13.120Z,100852.75
2023-09-27T00:18:16.369Z,100853.88
2023-09-27T00:19:23.177Z,100849.41
2023-09-27T00:20:26.049Z,100848.59
2023-09-27T00:21:31.792Z,100856.09
2023-09-27T00:22:36.463Z,100855.56
2023-09-27T00:23:38.849Z,100861.97
2023-09-27T00:24:41.404Z,100864.22
2023-09-27T00:25:44.144Z,100863.38
2023-09-27T00:26:46.601Z,100861.44
2023-09-27T00:27:49.065Z,100868.97
2023-09-27T00:28:52.184Z,100872.03
2023-09-27T00:29:54.971Z,100864.22
2023-09-27T00:30:57.710Z,100853.34
2023-09-27T00:32:00.711Z,100860.06
2023-09-27T00:33:06.088Z,100858.38
2023-09-27T00:34:08.600Z,100857.28
2023-09-27T00:35:13.913Z,100858.38
2023-09-27T00:36:17.422Z,100851.69
2023-09-27T00:37:20.997Z,100853.34
2023-09-27T00:38:23.615Z,100854.50
2023-09-27T00:39:26.111Z,100852.81
2023-09-27T00:40:28.603Z,100854.50
2023-09-27T00:41:31.099Z,100857.28
2023-09-27T00:42:33.477Z,100851.16
2023-09-27T00:43:36.482Z,100854.50
2023-09-27T00:44:39.083Z,100850.31
2023-09-27T00:45:41.563Z,100856.72
2023-09-27T00:46:45.372Z,100850.31
2023-09-27T00:47:49.355Z,100851.16
2023-09-27T00:48:52.564Z,100849.47
2023-09-27T00:49:55.209Z,100848.94
2023-09-27T00:51:00.217Z,100848.94
2023-09-27T00:52:03.475Z,100844.19
2023-09-27T00:53:07.391Z,100848.94
2023-09-27T00:54:11.526Z,100847.28
2023-09-27T00:55:18.048Z,100851.72
2023-09-27T00:56:20.634Z,100851.16
2023-09-27T00:57:23.810Z,100846.72
2023-09-27T00:58:27.095Z,100845.03
2023-09-27T00:59:30.430Z,100855.06
2023-09-27T01:00:34.631Z,100852.59
2023-09-27T01:01:39.265Z,100852.88
2023-09-27T01:02:42.667Z,100853.16
2023-09-27T01:03:45.802Z,100847.88
2023-09-27T01:04:52.188Z,100845.38
2023-09-27T01:05:54.665Z,100847.31
2023-09-27T01:06:57.120Z,100851.22
2023-09-27T01:07:59.750Z,100843.97
2023-09-27T01:09:02.532Z,100844.28
2023-09-27T01:10:05.815Z,100841.78
2023-09-27T01:11:08.544Z,100842.06
2023-09-27T01:12:10.941Z,100837.63
2023-09-27T01:13:16.053Z,100840.69
2023-09-27T01:14:19.128Z,100837.91
2023-09-27T01:15:21.633Z,100842.91
2023-09-27T01:16:25.136Z,100833.75
2023-09-27T01:17:27.587Z,100844.31
2023-09-27T01:18:30.002Z,100837.94
2023-09-27T01:19:32.369Z,100842.66
2023-09-27T01:20:36.137Z,100842.94
2023-09-27T01:21:38.564Z,100842.41
2023-09-27T01:22:41.092Z,100842.69
2023-09-27T01:23:44.820Z,100838.25
2023-09-27T01:24:49.378Z,100836.56
2023-09-27T01:26:00.674Z,100832.13
2023-09-27T01:27:07.042Z,100833.22
2023-09-27T01:28:11.985Z,100828.22
2023-09-27T01:29:14.512Z,100842.16
2023-09-27T01:30:16.919Z,100836.88
2023-09-27T01:31:19.656Z,100836.03
2023-09-27T01:32:23.717Z,100831.88
2023-09-27T01:33:27.153Z,100834.94
2023-09-27T01:34:30.752Z,100832.44
2023-09-27T01:35:38.578Z,100830.78
2023-09-27T01:36:41.072Z,100821.88
2023-09-27T01:37:43.555Z,100830.78
2023-09-27T01:38:45.905Z,100827.19
2023-09-27T01:39:48.385Z,100823.03
2023-09-27T01:40:51.295Z,100826.91
2023-09-27T01:41:53.915Z,100826.38
2023-09-27T01:42:56.325Z,100823.59
2023-09-27T01:43:58.705Z,100823.88
2023-09-27T01:45:01.184Z,100825.25
2023-09-27T01:46:04.868Z,100824.72
2023-09-27T01:47:08.447Z,100824.72
2023-09-27T01:48:10.919Z,100828.63
2023-09-27T01:49:14.477Z,100818.59
2023-09-27T01:50:20.057Z,100830.03
2023-09-27T01:51:22.696Z,100826.66
2023-09-27T01:52:25.017Z,100825.00
2023-09-27T01:53:27.467Z,100826.13
2023-09-27T01:54:29.939Z,100826.41
2023-09-27T01:55:33.059Z,100819.44
2023-09-27T01:56:35.515Z,100824.16
2023-09-27T01:57:37.939Z,100831.69
2023-09-27T01:58:40.333Z,100820.84
2023-09-27T01:59:42.708Z,100820.28
2023-09-27T02:00:46.096Z,100826.16
2023-09-27T02:01:48.964Z,100821.41
2023-09-27T02:02:57.207Z,100822.53
2023-09-27T02:03:59.858Z,100818.09
2023-09-27T02:05:05.355Z,100819.47
2023-09-27T02:06:09.874Z,100819.78
2023-09-27T02:07:13.440Z,100828.94
2023-09-27T02:08:17.818Z,100830.34
2023-09-27T02:09:26.149Z,100831.44
2023-09-27T02:10:28.596Z,100836.19
2023-09-27T02:11:32.686Z,100835.34
2023-09-27T02:12:35.423Z,100832.84
2023-09-27T02:13:39.066Z,100832.03
2023-09-27T02:14:41.729Z,100840.66
2023-09-27T02:15:44.121Z,100834.53
2023-09-27T02:16:50.029Z,100831.75
2023-09-27T02:17:53.066Z,100835.94
2023-09-27T02:18:55.806Z,100841.50
2023-09-27T02:19:58.346Z,100839.00
2023-09-27T02:21:01.566Z,100836.22
2023-09-27T02:22:05.374Z,100830.09
2023-09-27T02:23:09.475Z,100836.78
2023-09-27T02:24:14.549Z,100834.25
2023-09-27T02:25:18.811Z,100842.09
2023-09-27T02:26:21.343Z,100832.88
2023-09-27T02:27:24.821Z,100830.09
2023-09-27T02:28:30.248Z,100835.94
2023-09-27T02:29:35.394Z,100834.28
2023-09-27T02:30:39.518Z,100824.53
2023-09-27T02:31:42.712Z,100834.84
2023-09-27T02:32:49.089Z,100837.63
2023-09-27T02:33:51.551Z,100838.72
2023-09-27T02:34:55.317Z,100832.63
2023-09-27T02:35:59.099Z,100836.25
2023-09-27T02:37:01.892Z,100830.09
2023-09-27T02:38:07.997Z,100830.41
2023-09-27T02:39:12.851Z,100829.56
2023-09-27T02:40:15.837Z,100829.84
2023-09-27T02:41:18.405Z,100829.84
2023-09-27T02:42:21.559Z,100827.38
2023-09-27T02:43:24.000Z,100827.38
2023-09-27T02:44:26.633Z,100834.31
2023-09-27T02:45:29.118Z,100830.69
2023-09-27T02:46:31.524Z,100833.75
2023-09-27T02:47:34.066Z,100830.97
2023-09-27T02:48:37.388Z,100834.03
2023-09-27T02:49:39.811Z,100826.78
2023-09-27T02:50:51.169Z,100832.34
2023-09-27T02:51:54.465Z,100829.88
2023-09-27T02:52:58.181Z,100834.56
2023-09-27T02:54:01.638Z,100829.28
2023-09-27T02:55:04.146Z,100834.84
2023-09-27T02:56:06.590Z,100835.16
2023-09-27T02:57:08.982Z,100836.25
2023-09-27T02:58:11.752Z,100831.78
2023-09-27T02:59:14.689Z,100831.25
2023-09-27T03:00:17.293Z,100839.59
2023-09-27T03:01:20.158Z,100841.28
2023-09-27T03:02:25.088Z,100837.94
2023-09-27T03:03:30.268Z,100841.81
2023-09-27T03:04:34.009Z,100839.31
2023-09-27T03:05:38.162Z,100842.09
2023-09-27T03:06:43.297Z,100845.75
2023-09-27T03:07:47.149Z,100842.66
2023-09-27T03:08:49.683Z,100848.22
2023-09-27T03:09:53.898Z,100839.03
2023-09-27T03:10:57.070Z,100839.31
2023-09-27T03:11:59.741Z,100837.63
2023-09-27T03:13:03.445Z,100841.56
2023-09-27T03:14:06.340Z,100848.22
2023-09-27T03:15:13.907Z,100847.38
2023-09-27T03:16:18.233Z,100840.41
2023-09-27T03:17:26.624Z,100836.00
2023-09-27T03:18:29.008Z,100845.44
2023-09-27T03:19:31.466Z,100842.66
2023-09-27T03:20:38.223Z,100851.28
2023-09-27T03:21:40.690Z,100847.13
2023-09-27T03:22:44.478Z,100853.78
2023-09-27T03:23:46.911Z,100846.53
2023-09-27T03:24:49.570Z,100857.06
2023-09-27T03:25:54.373Z,100862.63
2023-09-27T03:26:58.649Z,100866.81
2023-09-27T03:28:01.114Z,100864.28
2023-09-27T03:29:04.139Z,100866.25
2023-09-27T03:30:10.191Z,100871.25
2023-09-27T03:31:14.597Z,100866.81
2023-09-27T03:32:17.073Z,100869.03
2023-09-27T03:33:22.121Z,100875.41
2023-09-27T03:34:24.427Z,100868.44
2023-09-27T03:35:26.849Z,100874.00
2023-09-27T03:36:29.828Z,100875.41
2023-09-27T03:37:34.095Z,100868.19
2023-09-27T03:38:38.021Z,100864.84
2023-09-27T03:39:42.930Z,100868.72
2023-09-27T03:40:45.629Z,100862.63
2023-09-27T03:41:53.013Z,100863.44
2023-09-27T03:42:57.226Z,100860.94
2023-09-27T03:44:01.583Z,100857.59
2023-09-27T03:45:04.381Z,100863.44
2023-09-27T03:46:06.939Z,100861.50
2023-09-27T03:47:10.107Z,100853.69
2023-09-27T03:48:13.882Z,100857.56
2023-09-27T03:49:16.380Z,100853.16
2023-09-27T03:50:19.365Z,100856.19
2023-09-27T03:51:29.115Z,100855.34
2023-09-27T03:52:31.621Z,100851.75
2023-09-27T03:53:35.089Z,100858.41
2023-09-27T03:54:37.487Z,100845.63
2023-09-27T03:55:40.743Z,100859.53
2023-09-27T03:56:45.339Z,100850.34
2023-09-27T03:57:49.599Z,100856.16
2023-09-27T03:58:53.772Z,100850.59
2023-09-27T03:59:57.269Z,100860.09
2023-09-27T04:00:59.820Z,100854.53
2023-09-27T04:02:02.892Z,100860.91
2023-09-27T04:03:05.636Z,100859.22
2023-09-27T04:04:09.502Z,100859.50
2023-09-27T04:05:13.735Z,100862.28
2023-09-27T04:06:16.618Z,100863.09
2023-09-27T04:07:22.367Z,100868.66
2023-09-27T04:08:24.800Z,100855.06
2023-09-27T04:09:27.158Z,100864.25
2023-09-27T04:10:30.416Z,100861.47
2023-09-27T04:11:32.941Z,100857.00
2023-09-27T04:12:36.303Z,100855.06
2023-09-27T04:13:38.899Z,100865.34
2023-09-27T04:14:42.853Z,100855.06
2023-09-27T04:15:46.172Z,100864.50
2023-09-27T04:16:48.575Z,100864.78
2023-09-27T04:17:51.065Z,100865.88
2023-09-27T04:18:53.634Z,100870.31
2023-09-27T04:19:56.666Z,100866.16
2023-09-27T04:21:08.823Z,100871.72
2023-09-27T04:22:11.195Z,100874.47
2023-09-27T04:23:13.715Z,100872.84
2023-09-27T04:24:17.452Z,100880.31
2023-09-27T04:25:20.538Z,100865.59
2023-09-27T04:26:26.288Z,100873.09
2023-09-27T04:27:30.132Z,100879.78
2023-09-27T04:28:37.098Z,100873.38
2023-09-27T04:29:47.415Z,100880.88
2023-09-27T04:30:50.408Z,100884.75
2023-09-27T04:31:54.766Z,100877.25
2023-09-27T04:32:58.593Z,100878.38
2023-09-27T04:34:05.557Z,100882.25
2023-09-27T04:35:10.813Z,100881.41
2023-09-27T04:36:19.321Z,100873.34
2023-09-27T04:37:24.636Z,100880.59
2023-09-27T04:38:27.151Z,100884.47
2023-09-27T04:39:32.410Z,100877.22
2023-09-27T04:40:34.746Z,100881.97
2023-09-27T04:41:37.484Z,100879.19
2023-09-27T04:42:41.187Z,100880.28
2023-09-27T04:43:44.064Z,100885.84
2023-09-27T04:44:47.502Z,100884.16
2023-09-27T04:45:50.706Z,100875.00
2023-09-27T04:46:54.845Z,100885.53
2023-09-27T04:47:57.677Z,100881.94
2023-09-27T04:49:00.413Z,100880.84
2023-09-27T04:50:04.836Z,100876.38
2023-09-27T04:51:08.684Z,100883.03
2023-09-27T04:52:11.101Z,100889.69
2023-09-27T04:53:15.899Z,100888.88
2023-09-27T04:54:18.716Z,100885.28
2023-09-27T04:55:21.113Z,100876.09
2023-09-27T04:56:24.202Z,100882.75
2023-09-27T04:57:26.680Z,100885.78
2023-09-27T04:58:29.030Z,100890.25
2023-09-27T04:59:31.578Z,100880.25
2023-09-27T05:00:35.363Z,100891.34
2023-09-27T05:01:37.798Z,100887.75
2023-09-27T05:02:42.444Z,100890.81
2023-09-27T05:03:45.120Z,100899.13
2023-09-27T05:04:48.691Z,100896.34
2023-09-27T05:05:54.534Z,100893.59
2023-09-27T05:06:56.949Z,100893.59
2023-09-27T05:07:59.476Z,100888.84
2023-09-27T05:09:02.306Z,100903.56
2023-09-27T05:10:05.302Z,100891.63
2023-09-27T05:11:07.964Z,100893.59
2023-09-27T05:12:10.542Z,100892.44
2023-09-27T05:13:12.939Z,100888.03
2023-09-27T05:14:15.342Z,100892.72
2023-09-27T05:15:19.012Z,100890.81
2023-09-27T05:16:21.507Z,100895.50
2023-09-27T05:17:25.441Z,100893.59
2023-09-27T05:18:28.945Z,100896.34
2023-09-27T05:19:31.555Z,100898.00
2023-09-27T05:20:38.040Z,100891.63
2023-09-27T05:21:41.228Z,100891.91
2023-09-27T05:22:49.853Z,100889.94
2023-09-27T05:23:53.336Z,100886.06
2023-09-27T05:24:55.755Z,100887.44
2023-09-27T05:25:58.665Z,100886.63
2023-09-27T05:27:05.768Z,100893.00
2023-09-27T05:28:08.637Z,100884.94
2023-09-27T05:29:15.716Z,100896.06
2023-09-27T05:30:21.400Z,100896.06
2023-09-27T05:31:24.413Z,100897.16
2023-09-27T05:32:26.863Z,100898.00
2023-09-27T05:33:29.992Z,100895.22
2023-09-27T05:34:35.092Z,100898.00
2023-09-27T05:35:37.569Z,100899.94
2023-09-27T05:36:41.969Z,100903.56
2023-09-27T05:37:46.260Z,100900.78
2023-09-27T05:38:49.819Z,100904.38
2023-09-27T05:39:52.262Z,100906.88
2023-09-27T05:40:55.187Z,100917.72
2023-09-27T05:41:57.527Z,100911.06
2023-09-27T05:43:01.464Z,100908.88
2023-09-27T05:44:05.524Z,100919.72
2023-09-27T05:45:28.612Z,100925.56
2023-09-27T05:46:31.142Z,100920.56
2023-09-27T05:47:34.661Z,100922.81
2023-09-27T05:48:38.244Z,100928.63
2023-09-27T05:49:41.918Z,100932.56
2023-09-27T05:50:48.838Z,100930.06
2023-09-27T05:51:52.568Z,100938.69
2023-09-27T05:52:56.438Z,100940.66
2023-09-27T05:54:00.879Z,100929.56
2023-09-27T05:55:07.040Z,100936.25
2023-09-27T05:56:09.729Z,100929.03
2023-09-27T05:57:12.328Z,100931.28
2023-09-27T05:58:14.730Z,100928.22
2023-09-27T05:59:17.350Z,100928.25
2023-09-27T06:00:27.807Z,100929.16
2023-09-27T06:01:33.291Z,100921.63
2023-09-27T06:02:35.869Z,100927.78
2023-09-27T06:03:40.251Z,100923.63
2023-09-27T06:04:42.820Z,100935.00
2023-09-27T06:05:46.584Z,100933.09
2023-09-27T06:06:50.815Z,100936.13
2023-09-27T06:07:54.339Z,100938.38
2023-09-27T06:09:04.303Z,100938.63
2023-09-27T06:10:11.072Z,100941.41
2023-09-27T06:11:13.488Z,100942.53
2023-09-27T06:12:19.021Z,100946.16
2023-09-27T06:13:21.757Z,100939.75
2023-09-27T06:14:25.464Z,100938.03
2023-09-27T06:15:29.209Z,100942.50
2023-09-27T06:16:31.810Z,100946.06
2023-09-27T06:17:36.410Z,100953.28
2023-09-27T06:18:39.903Z,100954.94
2023-09-27T06:19:43.357Z,100953.75
2023-09-27T06:20:48.771Z,100950.66
2023-09-27T06:21:54.116Z,100960.63
2023-09-27T06:22:59.085Z,100960.28
2023-09-27T06:24:02.533Z,100960.22
2023-09-27T06:25:07.481Z,100958.47
2023-09-27T06:26:11.987Z,100954.78
2023-09-27T06:27:14.580Z,100960.81
2023-09-27T06:28:17.383Z,100955.72
2023-09-27T06:29:21.636Z,100961.72
2023-09-27T06:30:24.774Z,100962.22
2023-09-27T06:31:27.147Z,100959.84
2023-09-27T06:32:29.672Z,100967.03
2023-09-27T06:33:32.243Z,100959.91
2023-09-27T06:34:36.802Z,100961.47
2023-09-27T06:35:39.961Z,100970.25
2023-09-27T06:36:44.042Z,100961.13
2023-09-27T06:37:50.857Z,100959.91
2023-09-27T06:38:53.748Z,100960.53
2023-09-27T06:39:56.580Z,100957.28
2023-09-27T06:40:59.062Z,100956.56
2023-09-27T06:42:01.424Z,100959.72
2023-09-27T06:43:06.345Z,100963.72
2023-09-27T06:44:08.823Z,100961.34
2023-09-27T06:45:11.805Z,100966.97
2023-09-27T06:46:17.550Z,100967.34
2023-09-27T06:47:20.371Z,100964.88
2023-09-27T06:48:24.951Z,100968.03
2023-09-27T06:49:27.444Z,100966.69
2023-09-27T06:50:29.852Z,100966.22
2023-09-27T06:51:32.866Z,100972.47
2023-09-27T06:52:36.306Z,100971.13
2023-09-27T06:53:39.812Z,100978.16
2023-09-27T06:54:42.255Z,100974.84
2023-09-27T06:55:50.693Z,100979.91
2023-09-27T06:56:53.113Z,100978.56
2023-09-27T06:57:55.555Z,100975.22
2023-09-27T06:58:58.040Z,100972.19
2023-09-27T07:00:00.415Z,100978.91
2023-09-27T07:01:02.960Z,100977.53
2023-09-27T07:02:05.457Z,100977.28
2023-09-27T07:03:08.325Z,100982.34
2023-09-27T07:04:10.934Z,100979.31
2023-09-27T07:05:13.463Z,100983.81
2023-09-27T07:06:16.420Z,100978.75
2023-09-27T07:07:18.780Z,100983.28
2023-09-27T07:08:22.212Z,100977.41
2023-09-27T07:09:24.682Z,100979.94
2023-09-27T07:10:27.121Z,100976.31
2023-09-27T07:11:29.630Z,100981.16
2023-09-27T07:12:32.360Z,100984.88
2023-09-27T07:13:35.785Z,100983.75
2023-09-27T07:14:38.268Z,100986.59
2023-09-27T07:15:41.054Z,100993.09
2023-09-27T07:16:58.454Z,100993.59
2023-09-27T07:19:09.054Z,100989.81
2023-09-27T07:20:34.500Z,100997.19
2023-09-27T07:21:38.373Z,101004.13
2023-09-27T07:22:40.754Z,101006.97
2023-09-27T07:23:43.578Z,101004.97
2023-09-27T07:24:46.404Z,101004.47
2023-09-27T07:25:51.980Z,101008.94
2023-09-27T07:26:54.515Z,101012.59
2023-09-27T07:27:57.725Z,101016.25
2023-09-27T07:29:00.848Z,101008.94
2023-09-27T07:30:04.849Z,101006.94
2023-09-27T07:31:07.560Z,101012.22
2023-09-27T07:32:10.098Z,101011.03
2023-09-27T07:33:13.495Z,101008.19
2023-09-27T07:34:16.313Z,101012.63
2023-09-27T07:35:19.806Z,101014.28
2023-09-27T07:36:25.673Z,101017.06
2023-09-27T07:37:28.130Z,101011.72
2023-09-27T07:38:30.961Z,101016.50
2023-09-27T07:39:33.963Z,101021.25
2023-09-27T07:40:36.976Z,101017.09
2023-09-27T07:41:40.122Z,101019.38
2023-09-27T07:42:44.054Z,101016.00
2023-09-27T07:43:49.225Z,101024.47
2023-09-27T07:44:52.226Z,101026.72
2023-09-27T07:45:56.339Z,101019.72
2023-09-27T07:47:01.167Z,101022.84
2023-09-27T07:48:04.023Z,101023.09
2023-09-27T07:49:06.534Z,101026.22
2023-09-27T07:50:09.190Z,101026.81
2023-09-27T07:51:16.549Z,101034.41
2023-09-27T07:52:19.031Z,101032.22
2023-09-27T07:53:21.598Z,101027.16
2023-09-27T07:54:25.462Z,101018.13
2023-09-27T07:55:28.403Z,101024.88
2023-09-27T07:56:38.309Z,101017.00
2023-09-27T07:57:45.314Z,101018.44
2023-09-27T07:58:50.706Z,101015.41
2023-09-27T07:59:53.924Z,101012.34
2023-09-27T08:00:56.848Z,101000.00
2023-09-27T08:02:00.919Z,101006.25
2023-09-27T08:03:04.534Z,101010.03
2023-09-27T08:04:12.733Z,101004.13
2023-09-27T08:05:15.874Z,100998.63
2023-09-27T08:06:19.031Z,101002.38
2023-09-27T08:07:21.700Z,101003.72
2023-09-27T08:08:24.045Z,101002.19
2023-09-27T08:09:40.454Z,100997.81
2023-09-27T08:10:45.674Z,100995.94
2023-09-27T08:11:48.917Z,101009.38
2023-09-27T08:12:51.397Z,100994.53
2023-09-27T08:13:55.251Z,100999.47
2023-09-27T08:15:02.005Z,100991.94
2023-09-27T08:16:07.636Z,100992.91
2023-09-27T08:17:11.536Z,100989.34
2023-09-27T08:18:14.271Z,100993.47
2023-09-27T08:19:17.305Z,100988.25
2023-09-27T08:20:20.482Z,100990.75
2023-09-27T08:21:22.835Z,100987.69
2023-09-27T08:22:25.322Z,100988.63
2023-09-27T08:23:27.762Z,100990.75
2023-09-27T08:24:30.165Z,100987.09
2023-09-27T08:25:32.670Z,100991.22
2023-09-27T08:26:36.899Z,100992.16
2023-09-27T08:27:39.322Z,100993.47
2023-09-27T08:28:41.982Z,100985.44
2023-09-27T08:29:45.038Z,100992.88
2023-09-27T08:30:48.471Z,100993.81
2023-09-27T08:31:52.764Z,100989.09
2023-09-27T08:32:55.281Z,100986.38
2023-09-27T08:34:01.284Z,100982.13
2023-09-27T08:35:03.902Z,100986.69
2023-09-27T08:36:07.573Z,100977.94
2023-09-27T08:37:13.072Z,100980.88
2023-09-27T08:38:17.096Z,100972.13
2023-09-27T08:39:19.986Z,100969.41
2023-09-27T08:40:22.994Z,100966.69
2023-09-27T08:41:25.484Z,100957.06
2023-09-27T08:42:29.836Z,100962.03
2023-09-27T08:43:34.214Z,100957.31
2023-09-27T08:44:38.420Z,100965.56
2023-09-27T08:45:41.264Z,100963.19
2023-09-27T08:46:48.352Z,100962.00
2023-09-27T08:47:52.928Z,100959.28
2023-09-27T08:48:57.888Z,100957.72
2023-09-27T08:50:00.537Z,100954.53
2023-09-27T08:51:06.512Z,100958.28
2023-09-27T08:52:10.780Z,100948.97
2023-09-27T08:53:14.299Z,100945.75
2023-09-27T08:54:18.977Z,100946.22
2023-09-27T08:55:21.495Z,100942.53
2023-09-27T08:56:25.921Z,100942.66
2023-09-27T08:57:29.756Z,100947.97
2023-09-27T08:58:33.258Z,100939.56
2023-09-27T08:59:36.425Z,100947.31
2023-09-27T09:00:43.247Z,100940.94
2023-09-27T09:01:46.489Z,100940.56
2023-09-27T09:02:53.872Z,100942.22
2023-09-27T09:03:56.734Z,100937.84
2023-09-27T09:04:59.529Z,100932.59
2023-09-27T09:06:02.690Z,100943.25
2023-09-27T09:07:07.828Z,100940.47
2023-09-27T09:08:10.769Z,100934.56
2023-09-27T09:09:13.299Z,100934.66
2023-09-27T09:10:17.495Z,100940.06
2023-09-27T09:11:20.523Z,100933.63
2023-09-27T09:12:24.492Z,100928.91
2023-09-27T09:13:26.816Z,100924.13
2023-09-27T09:14:44.514Z,100921.00
2023-09-27T09:15:50.137Z,100916.69
2023-09-27T09:16:55.802Z,100914.41
2023-09-27T09:18:01.316Z,100910.44
2023-09-27T09:19:41.773Z,100913.84
2023-09-27T09:20:52.856Z,100911.50
2023-09-27T09:22:09.852Z,100915.75
2023-09-27T09:23:14.235Z,100908.13
2023-09-27T09:24:21.849Z,100908.22
2023-09-27T09:25:25.797Z,100899.75
2023-09-27T09:26:30.806Z,100905.09
2023-09-27T09:27:34.358Z,100901.88
2023-09-27T09:28:57.377Z,100898.19
2023-09-27T09:30:03.302Z,100896.09
2023-09-27T09:31:05.749Z,100892.06
2023-09-27T09:32:10.104Z,100894.44
2023-09-27T09:33:21.449Z,100887.56
2023-09-27T09:34:25.202Z,100887.50
2023-09-27T09:35:36.459Z,100893.63
2023-09-27T09:36:39.029Z,100893.63
2023-09-27T09:37:43.537Z,100892.78
2023-09-27T09:38:46.849Z,100883.84
2023-09-27T09:39:51.871Z,100885.84
2023-09-27T09:40:55.761Z,100892.78
2023-09-27T09:42:01.771Z,100889.53
2023-09-27T09:43:05.839Z,100890.28
2023-09-27T09:44:24.488Z,100883.38
2023-09-27T09:45:28.301Z,100889.44
2023-09-27T09:46:31.483Z,100881.75
2023-09-27T09:47:38.750Z,100886.59
2023-09-27T09:48:41.843Z,100885.31
2023-09-27T09:49:51.545Z,100882.84
2023-09-27T09:51:09.675Z,100886.50
2023-09-27T09:52:13.343Z,100883.66
2023-09-27T09:53:17.634Z,100887.72
2023-09-27T09:54:35.349Z,100886.06
2023-09-27T09:56:59.368Z,100881.91
2023-09-27T09:58:30.979Z,100877.53
2023-09-27T09:59:43.081Z,100873.88
2023-09-27T10:00:51.107Z,100863.69
2023-09-27T10:01:56.053Z,100869.03
2023-09-27T10:03:09.472Z,100882.38
2023-09-27T10:04:13.326Z,100877.44
2023-09-27T10:05:19.865Z,100862.69
2023-09-27T10:06:32.461Z,100865.97
2023-09-27T10:07:40.957Z,100862.69
2023-09-27T10:08:45.109Z,100863.06
2023-09-27T10:09:48.798Z,100860.59
2023-09-27T10:10:52.155Z,100859.78
2023-09-27T10:11:56.008Z,100871.50
2023-09-27T10:13:00.023Z,100876.63
2023-09-27T10:14:03.718Z,100858.31
2023-09-27T10:15:08.904Z,100856.22
2023-09-27T10:16:11.473Z,100866.31
2023-09-27T10:17:24.494Z,100857.28
2023-09-27T10:18:31.347Z,100860.81
2023-09-27T10:19:35.148Z,100862.00
2023-09-27T10:20:58.829Z,100858.38
2023-09-27T10:22:06.344Z,100860.38
2023-09-27T10:23:12.443Z,100860.38
2023-09-27T10:24:27.904Z,100855.91
2023-09-27T10:25:34.694Z,100859.50
2023-09-27T10:26:39.720Z,100855.81
2023-09-27T10:28:05.017Z,100851.78
2023-09-27T10:29:09.462Z,100851.78
2023-09-27T10:30:13.329Z,100851.78
2023-09-27T10:31:21.761Z,100848.94
2023-09-27T10:32:24.823Z,100855.00
2023-09-27T10:33:27.605Z,100852.16
2023-09-27T10:34:29.920Z,100854.16
2023-09-27T10:35:34.517Z,100852.97
2023-09-27T10:36:40.695Z,100850.13
2023-09-27T10:38:01.046Z,100850.59
2023-09-27T10:39:04.878Z,100847.75
2023-09-27T10:40:22.980Z,100845.72
2023-09-27T10:41:34.808Z,100844.53
2023-09-27T10:42:44.226Z,100841.72
2023-09-27T10:43:47.615Z,100839.63
2023-09-27T10:44:51.663Z,100838.78
2023-09-27T10:45:57.551Z,100851.78
2023-09-27T10:47:04.995Z,100851.69
2023-09-27T10:48:20.592Z,100839.91
2023-09-27T10:49:28.235Z,100834.56
2023-09-27T10:50:31.531Z,100828.44
2023-09-27T10:51:38.208Z,100840.63
2023-09-27T10:52:45.198Z,100838.97
2023-09-27T10:53:47.733Z,100830.00
2023-09-27T10:54:50.617Z,100830.81
2023-09-27T10:55:53.553Z,100832.00
2023-09-27T10:56:58.626Z,100833.66
2023-09-27T10:58:03.236Z,100833.66
2023-09-27T10:59:09.518Z,100829.53
2023-09-27T11:00:15.419Z,100831.06
2023-09-27T11:01:29.381Z,100821.66
2023-09-27T11:02:32.963Z,100819.19
2023-09-27T11:03:36.796Z,100820.84
2023-09-27T11:04:41.307Z,100815.16
2023-09-27T11:05:45.338Z,100812.69
2023-09-27T11:06:47.693Z,100820.38
2023-09-27T11:07:52.213Z,100816.72
2023-09-27T11:09:07.848Z,100807.66
2023-09-27T11:10:10.617Z,100808.03
2023-09-27T11:11:13.301Z,100809.22
2023-09-27T11:12:23.258Z,100801.53
2023-09-27T11:13:27.068Z,100806.84
2023-09-27T11:14:34.699Z,100804.38
2023-09-27T11:15:47.742Z,100801.91
2023-09-27T11:16:50.255Z,100804.28
2023-09-27T11:17:57.398Z,100803.91
2023-09-27T11:19:00.761Z,100810.75
2023-09-27T11:20:15.387Z,100805.94
2023-09-27T11:21:17.897Z,100794.59
2023-09-27T11:22:27.407Z,100796.22
2023-09-27T11:23:31.252Z,100793.69
2023-09-27T11:24:41.419Z,100786.78
2023-09-27T11:25:45.570Z,100788.81
2023-09-27T11:26:49.640Z,100785.97
2023-09-27T11:27:52.383Z,100791.28
2023-09-27T11:29:06.404Z,100784.78
2023-09-27T11:30:11.338Z,100783.13
2023-09-27T11:31:24.915Z,100781.50
2023-09-27T11:32:28.714Z,100790.75
2023-09-27T11:33:35.331Z,100784.59
2023-09-27T11:34:39.077Z,100778.56
2023-09-27T11:35:48.795Z,100782.13
2023-09-27T11:36:53.390Z,100780.03
2023-09-27T11:38:29.636Z,100782.03
2023-09-27T11:40:01.045Z,100780.03
2023-09-27T11:41:08.984Z,100776.31
2023-09-27T11:42:11.702Z,100777.94
2023-09-27T11:43:16.437Z,100774.66
2023-09-27T11:44:29.889Z,100777.84
2023-09-27T11:45:45.283Z,100773.66
2023-09-27T11:46:53.684Z,100763.00
2023-09-27T11:47:59.186Z,100782.88
2023-09-27T11:49:12.604Z,100764.50
2023-09-27T11:50:19.470Z,100759.06
2023-09-27T11:51:23.265Z,100759.44
2023-09-27T11:52:31.006Z,100759.34
2023-09-27T11:53:33.419Z,100752.03
2023-09-27T11:54:38.517Z,100754.75
2023-09-27T11:55:41.369Z,100752.28
2023-09-27T11:56:48.027Z,100756.78
2023-09-27T11:57:52.612Z,100753.47
2023-09-27T11:58:56.083Z,100753.47
2023-09-27T11:59:58.844Z,100750.63
2023-09-27T12:01:04.017Z,100756.69
2023-09-27T12:02:20.594Z,100747.38
2023-09-27T12:03:32.156Z,100747.38
2023-09-27T12:04:34.753Z,100740.84
2023-09-27T12:05:39.252Z,100742.50
2023-09-27T12:06:42.632Z,100747.00
2023-09-27T12:07:45.722Z,100748.19
2023-09-27T12:08:48.167Z,100742.50
2023-09-27T12:09:51.969Z,100744.06
2023-09-27T12:10:54.341Z,100739.56
2023-09-27T12:11:58.860Z,100738.38
2023-09-27T12:13:02.883Z,100725.88
2023-09-27T12:14:05.616Z,100736.75
2023-09-27T12:15:08.787Z,100728.22
2023-09-27T12:16:11.298Z,100730.25
2023-09-27T12:17:15.208Z,100727.31
2023-09-27T12:18:17.731Z,100734.66
2023-09-27T12:19:22.402Z,100728.88
2023-09-27T12:20:40.285Z,100726.50